Observations for TIREE ISLAND, United Kingdom (EGPU)

EGPU 180250Z AUTO 20007KT 9999 FEW014/// BKN042/// 06/05 Q1016  
EGPU 180220Z AUTO 21008KT 9999 NCD 05/04 Q1016  
EGPU 180150Z AUTO 18010KT 9999 NCD 05/04 Q1016  
EGPU 180120Z AUTO 18010KT 9999 NCD 05/04 Q1015  
EGPU 180050Z AUTO 19007KT 9999 NCD 05/03 Q1016  
EGPU 180020Z AUTO 19007KT 9999 NCD 04/03 Q1016  
EGPU 172350Z AUTO 20006KT 9999 BKN048/// 04/03 Q1016
EGPU 172320Z AUTO 20007KT 9999 NCD 05/03 Q1016  
EGPU 172250Z AUTO 19006KT 9999 NCD 05/04 Q1016  
EGPU 172220Z AUTO 20007KT 9999 NCD 05/03 Q1016  
EGPU 172150Z AUTO 22006KT 9999 NCD 04/02 Q1016  
EGPU 172120Z AUTO 22005KT 8000 NCD 04/02 Q1016 RERA 
EGPU 172050Z AUTO 21009KT 9999 BKN045/// 05/03 Q1016 RERA   
EGPU 172020Z AUTO 21007KT 9999 FEW041/// 05/04 Q1016
EGPU 171950Z AUTO 21007KT 9999 NCD 05/04 Q1016  
EGPU 171920Z AUTO 22006KT 9999 NCD 04/03 Q1016  
EGPU 171850Z AUTO 22006KT 9999 NCD 04/02 Q1016  
EGPU 171820Z AUTO 23006KT 9999 NCD 05/03 Q1015 RERA 
EGPU 171750Z 25007KT 9999 FEW028 SCT045 06/03 Q1015 
EGPU 171720Z 24008KT 9999 VCSH FEW027 SCT047 06/03 Q1015
EGPU 171650Z 22011KT 9999 FEW027 SCT047 06/04 Q1015 
EGPU 171620Z 23010KT 9999 SCT029 07/04 Q1015
EGPU 171550Z 23011KT 9999 SCT029 07/03 Q1014
EGPU 171520Z 23011KT 9999 SCT031 07/03 Q1014
EGPU 171450Z 21010KT 9999 VCSH FEW022 FEW025CB SCT027 07/04 Q1014   
EGPU 171420Z 23006KT 9999 SCT027 07/05 Q1014
EGPU 171350Z 22013KT 200V260 9000 VCSH SCT027 SCT028CB 06/03 Q1014  
EGPU 171320Z AUTO 21012KT 180V240 9999 FEW032/// 08/05 Q1014 RERA   
EGPU 171250Z AUTO 22013KT 9999 FEW034/// 08/04 Q1014
EGPU 171220Z 22012KT 9999 VCSH FEW023CB 07/03 Q1014 
EGPU 171150Z AUTO 22012KT 190V250 9999 NCD 06/03 Q1014 RERA 
EGPU 171120Z AUTO 25012KT 9999 NCD 07/03 Q1013  
EGPU 171050Z 26007KT 9999 VCSH FEW022CB 06/05 Q1013 
EGPU 171020Z 25007KT 9999 VCSH FEW024CB 07/04 Q1013 
EGPU 170950Z 25006KT 9999 VCSH FEW023 FEW026CB 06/04 Q1012  
EGPU 170920Z 25007KT 9999 VCSH FEW022 FEW024CB 06/04 Q1012  
EGPU 170850Z 21009KT 9999 VCSH FEW021CB SCT026 05/03 Q1012  
EGPU 170820Z AUTO 23006KT 210V270 9999 SCT021/// 04/03 Q1012 RERA   
EGPU 170750Z AUTO 26012KT 4600 RA BKN019/// SCT031/// 04/02 Q1012   
EGPU 170720Z AUTO 21008KT 180V240 7000 RA FEW024/// 04/02 Q1011 
EGPU 170650Z AUTO 20010KT 9999 FEW016/// 04/02 Q1011 RERA   
EGPU 170620Z AUTO 24012KT 200V270 6000 RA BKN014/// SCT041/// 03/03 Q1011   
EGPU 170550Z AUTO 26014KT 210V300 9999 FEW012/// BKN042/// 04/03 Q1011  
EGPU 170520Z AUTO 21010KT 9999 NCD 04/03 Q1011  
EGPU 170450Z AUTO 22013KT 9999 NCD 05/04 Q1010  
EGPU 170420Z AUTO 20011KT 9999 NCD 05/04 Q1010 RERA 
EGPU 170350Z AUTO 21010KT 9999 FEW020/// 04/03 Q1010 RERA   
EGPU 170320Z AUTO 26011KT 230V300 9999 -DZ FEW009/// BKN016/// 05/04 Q1011  
EGPU 170250Z AUTO 23013KT 200V260 9999 FEW014/// BKN024/// 05/04 Q1010 RERA